MMTM/TAM METAR and TAF weather

Enter ICAO airport designator
Station Type Date Time Source
MMTM METAR 2019/02/20 23:47 UTC NOAA

MMTM 202347Z E02025KT 7SM OVC050 18/13 A2988 RMK SLP104 52045 941 8/5//


Station Type Date Time Source
MMTM Decoded METAR 2019/02/20 23:47 UTC NOAA

Tampico / Gen Fj Mina, Mexico (MMTM) 22-17N 097-52W
Feb 20, 2019 - 06:47 PM EST / 2019.02.20 2347 UTC
Visibility: 7 mile(s):0
Sky conditions: overcast
Temperature: 64 F (18 C)
Dew Point: 55 F (13 C)
Relative Humidity: 72%
Pressure (altimeter): 29.88 in. Hg (1011 hPa)
Pressure tendency: 0.13 inches (4.5 hPa) higher than three hours ago
ob: MMTM 202347Z E02025KT 7SM OVC050 18/13 A2988 RMK SLP104 52045 941 8/5//
cycle: 0

Station Type Date Time Source
MMTM TAF 2019/02/20 18:12 UTC NOAA

TAF MMTM 201605Z 2018/2118 01025G35KT 6SM BLDU OVC010
FM210300 35010KT 5SM BR HZ BKN008
FM211200 15005KT 6SM BR HZ BKN006
FM211600 12008KT 5SM BR HZ BKN010


Example: see airport list